Terminal Aerodrome Forecast
Issued by NWS

Home | Current Version | Previous Version | Text Only | Print | Product List | Glossary On
Versions: 1 2 3 4 5 6 7 8 9 10 11 12
001
FTAK31 PAJN 220534
TAFAKT
TAF
PAKT 220534Z 2206/2306 14004KT P6SM -RA OVC100
     FM220900 16004KT 4SM -RA BR SCT007 OVC025
     FM222000 14010KT 4SM -RA BR OVC015
     FM230000 14007KT 4SM BR VCSH SCT007 OVC015
      AMD LTD TO CLD VIS AND WIND 2206/2215=

USA.gov is the U.S. government's official web portal to all federal, state and local government web resources and services.